sensor_id;sensor_type;location;lat;lon;timestamp;pressure;altitude;pressure_sealevel;temperature;humidity
49835;BME280;35729;52.090;13.162;2023-01-19T00:01:07;99753.66;;;-3.35;89.15
49835;BME280;35729;52.090;13.162;2023-01-19T00:03:35;99754.50;;;-3.36;89.27
49835;BME280;35729;52.090;13.162;2023-01-19T00:06:04;99765.63;;;-3.36;89.34
49835;BME280;35729;52.090;13.162;2023-01-19T00:08:36;99759.63;;;-3.36;89.50
49835;BME280;35729;52.090;13.162;2023-01-19T00:11:05;99764.75;;;-3.36;89.26
49835;BME280;35729;52.090;13.162;2023-01-19T00:13:34;99766.47;;;-3.37;89.19
49835;BME280;35729;52.090;13.162;2023-01-19T00:16:04;99768.19;;;-3.37;89.25
49835;BME280;35729;52.090;13.162;2023-01-19T00:18:33;99765.53;;;-3.40;89.30
49835;BME280;35729;52.090;13.162;2023-01-19T00:21:01;99764.63;;;-3.42;89.10
49835;BME280;35729;52.090;13.162;2023-01-19T00:23:30;99770.66;;;-3.42;89.33
49835;BME280;35729;52.090;13.162;2023-01-19T00:26:01;99779.16;;;-3.45;89.60
49835;BME280;35729;52.090;13.162;2023-01-19T00:28:29;99776.50;;;-3.48;89.21
49835;BME280;35729;52.090;13.162;2023-01-19T00:30:58;99777.38;;;-3.49;89.38
49835;BME280;35729;52.090;13.162;2023-01-19T00:33:26;99783.31;;;-3.51;89.23
49835;BME280;35729;52.090;13.162;2023-01-19T00:35:55;99794.34;;;-3.54;89.11
49835;BME280;35729;52.090;13.162;2023-01-19T00:38:23;99794.28;;;-3.57;89.25
49835;BME280;35729;52.090;13.162;2023-01-19T00:40:52;99797.69;;;-3.58;89.34
49835;BME280;35729;52.090;13.162;2023-01-19T00:43:23;99795.09;;;-3.60;89.38
49835;BME280;35729;52.090;13.162;2023-01-19T00:45:48;99794.25;;;-3.60;89.11
49835;BME280;35729;52.090;13.162;2023-01-19T00:48:17;99795.94;;;-3.59;89.15
49835;BME280;35729;52.090;13.162;2023-01-19T00:50:46;99789.97;;;-3.60;89.20
49835;BME280;35729;52.090;13.162;2023-01-19T00:53:15;99794.25;;;-3.60;89.09
49835;BME280;35729;52.090;13.162;2023-01-19T00:55:44;99795.06;;;-3.61;89.06
49835;BME280;35729;52.090;13.162;2023-01-19T00:58:12;99796.75;;;-3.62;89.07
49835;BME280;35729;52.090;13.162;2023-01-19T01:00:44;99799.28;;;-3.63;89.24
49835;BME280;35729;52.090;13.162;2023-01-19T01:03:12;99806.06;;;-3.65;89.35
49835;BME280;35729;52.090;13.162;2023-01-19T01:05:41;99800.91;;;-3.67;89.26
49835;BME280;35729;52.090;13.162;2023-01-19T01:08:09;99806.00;;;-3.68;89.34
49835;BME280;35729;52.090;13.162;2023-01-19T01:10:38;99802.53;;;-3.70;89.20
49835;BME280;35729;52.090;13.162;2023-01-19T01:13:06;99799.09;;;-3.72;88.86
49835;BME280;35729;52.090;13.162;2023-01-19T01:15:35;99801.59;;;-3.76;89.18
49835;BME280;35729;52.090;13.162;2023-01-19T01:18:06;99808.44;;;-3.76;89.21
49835;BME280;35729;52.090;13.162;2023-01-19T01:20:34;99801.56;;;-3.77;89.46
49835;BME280;35729;52.090;13.162;2023-01-19T01:23:09;99808.41;;;-3.78;89.27
49835;BME280;35729;52.090;13.162;2023-01-19T01:25:37;99800.66;;;-3.79;89.35
49835;BME280;35729;52.090;13.162;2023-01-19T01:28:08;99809.22;;;-3.79;89.18
49835;BME280;35729;52.090;13.162;2023-01-19T01:30:37;99812.63;;;-3.80;89.27
49835;BME280;35729;52.090;13.162;2023-01-19T01:33:08;99817.75;;;-3.80;89.13
49835;BME280;35729;52.090;13.162;2023-01-19T01:35:37;99808.31;;;-3.81;88.90
49835;BME280;35729;52.090;13.162;2023-01-19T01:38:06;99808.31;;;-3.81;89.13
49835;BME280;35729;52.090;13.162;2023-01-19T01:40:38;99808.28;;;-3.82;89.06
49835;BME280;35729;52.090;13.162;2023-01-19T01:43:10;99808.25;;;-3.85;89.09
49835;BME280;35729;52.090;13.162;2023-01-19T01:45:45;99822.72;;;-3.86;88.92
49835;BME280;35729;52.090;13.162;2023-01-19T01:48:19;99822.69;;;-3.87;88.89
49835;BME280;35729;52.090;13.162;2023-01-19T01:50:52;99825.28;;;-3.87;89.01
49835;BME280;35729;52.090;13.162;2023-01-19T01:53:34;99816.66;;;-3.89;88.98
49835;BME280;35729;52.090;13.162;2023-01-19T01:56:06;99821.78;;;-3.91;88.87
49835;BME280;35729;52.090;13.162;2023-01-19T01:58:36;99822.59;;;-3.92;88.87
49835;BME280;35729;52.090;13.162;2023-01-19T02:01:06;99817.41;;;-3.95;88.66
49835;BME280;35729;52.090;13.162;2023-01-19T02:03:50;99826.75;;;-3.97;88.74
49835;BME280;35729;52.090;13.162;2023-01-19T02:06:19;99824.13;;;-4.00;89.04
49835;BME280;35729;52.090;13.162;2023-01-19T02:08:52;99824.94;;;-4.03;88.95
49835;BME280;35729;52.090;13.162;2023-01-19T02:11:35;99830.84;;;-4.05;88.74
49835;BME280;35729;52.090;13.162;2023-01-19T02:14:16;99829.94;;;-4.07;88.81
49835;BME280;35729;52.090;13.162;2023-01-19T02:16:46;99830.75;;;-4.10;88.76
49835;BME280;35729;52.090;13.162;2023-01-19T02:19:21;99826.44;;;-4.11;88.59
49835;BME280;35729;52.090;13.162;2023-01-19T02:21:54;99829.81;;;-4.14;88.83
49835;BME280;35729;52.090;13.162;2023-01-19T02:24:29;99832.31;;;-4.17;88.63
49835;BME280;35729;52.090;13.162;2023-01-19T02:26:58;99830.56;;;-4.18;88.82
49835;BME280;35729;52.090;13.162;2023-01-19T02:29:27;99827.09;;;-4.20;88.87
49835;BME280;35729;52.090;13.162;2023-01-19T02:31:56;99849.28;;;-4.20;88.84
49835;BME280;35729;52.090;13.162;2023-01-19T02:34:27;99839.03;;;-4.22;88.79
49835;BME280;35729;52.090;13.162;2023-01-19T02:36:58;99837.28;;;-4.23;88.94
49835;BME280;35729;52.090;13.162;2023-01-19T02:39:35;99832.94;;;-4.26;88.73
49835;BME280;35729;52.090;13.162;2023-01-19T02:42:05;99832.94;;;-4.26;88.92
49835;BME280;35729;52.090;13.162;2023-01-19T02:44:36;99830.38;;;-4.27;88.49
49835;BME280;35729;52.090;13.162;2023-01-19T02:47:05;99831.19;;;-4.28;88.71
49835;BME280;35729;52.090;13.162;2023-01-19T02:49:34;99816.66;;;-4.29;88.58
49835;BME280;35729;52.090;13.162;2023-01-19T02:52:03;99820.00;;;-4.32;88.37
49835;BME280;35729;52.090;13.162;2023-01-19T02:54:44;99824.22;;;-4.32;88.56
49835;BME280;35729;52.090;13.162;2023-01-19T02:57:27;99822.56;;;-4.32;88.61
49835;BME280;35729;52.090;13.162;2023-01-19T03:00:15;99819.13;;;-4.32;88.45
49835;BME280;35729;52.090;13.162;2023-01-19T03:02:51;99826.78;;;-4.32;88.57
49835;BME280;35729;52.090;13.162;2023-01-19T03:05:39;99827.69;;;-4.32;88.56
49835;BME280;35729;52.090;13.162;2023-01-19T03:08:15;99825.94;;;-4.33;88.63
49835;BME280;35729;52.090;13.162;2023-01-19T03:10:59;99827.66;;;-4.33;88.54
49835;BME280;35729;52.090;13.162;2023-01-19T03:13:33;99826.75;;;-4.35;88.58
49835;BME280;35729;52.090;13.162;2023-01-19T03:16:13;99819.06;;;-4.35;88.50
49835;BME280;35729;52.090;13.162;2023-01-19T03:18:46;99819.88;;;-4.36;88.62
49835;BME280;35729;52.090;13.162;2023-01-19T03:21:17;99815.56;;;-4.37;88.46
49835;BME280;35729;52.090;13.162;2023-01-19T03:23:48;99829.25;;;-4.38;88.51
49835;BME280;35729;52.090;13.162;2023-01-19T03:26:25;99821.56;;;-4.38;88.50
49835;BME280;35729;52.090;13.162;2023-01-19T03:28:55;99825.78;;;-4.39;88.53
49835;BME280;35729;52.090;13.162;2023-01-19T03:31:27;99824.03;;;-4.42;88.19
49835;BME280;35729;52.090;13.162;2023-01-19T03:34:02;99823.13;;;-4.44;88.18
49835;BME280;35729;52.090;13.162;2023-01-19T03:36:35;99826.47;;;-4.46;88.20
49835;BME280;35729;52.090;13.162;2023-01-19T03:39:06;99834.13;;;-4.48;88.26
49835;BME280;35729;52.090;13.162;2023-01-19T03:41:40;99826.41;;;-4.49;88.27
49835;BME280;35729;52.090;13.162;2023-01-19T03:44:10;99825.50;;;-4.51;88.05
49835;BME280;35729;52.090;13.162;2023-01-19T03:46:39;99835.72;;;-4.51;88.31
49835;BME280;35729;52.090;13.162;2023-01-19T03:49:08;99837.44;;;-4.52;88.41
49835;BME280;35729;52.090;13.162;2023-01-19T03:51:37;99842.56;;;-4.52;87.99
49835;BME280;35729;52.090;13.162;2023-01-19T03:54:09;99840.81;;;-4.53;88.17
49835;BME280;35729;52.090;13.162;2023-01-19T03:56:40;99832.22;;;-4.55;88.12
49835;BME280;35729;52.090;13.162;2023-01-19T03:59:09;99839.06;;;-4.55;87.91
49835;BME280;35729;52.090;13.162;2023-01-19T04:01:37;99836.47;;;-4.57;88.06
49835;BME280;35729;52.090;13.162;2023-01-19T04:04:05;99839.00;;;-4.59;88.21
49835;BME280;35729;52.090;13.162;2023-01-19T04:06:34;99847.53;;;-4.58;87.87
49835;BME280;35729;52.090;13.162;2023-01-19T04:09:03;99845.75;;;-4.61;87.93
49835;BME280;35729;52.090;13.162;2023-01-19T04:11:31;99852.59;;;-4.61;88.12
49835;BME280;35729;52.090;13.162;2023-01-19T04:14:02;99850.03;;;-4.61;88.16
49835;BME280;35729;52.090;13.162;2023-01-19T04:16:31;99844.91;;;-4.61;88.06
49835;BME280;35729;52.090;13.162;2023-01-19T04:18:59;99844.91;;;-4.61;88.12
49835;BME280;35729;52.090;13.162;2023-01-19T04:21:28;99853.41;;;-4.62;88.26
49835;BME280;35729;52.090;13.162;2023-01-19T04:23:56;99850.88;;;-4.61;88.25
49835;BME280;35729;52.090;13.162;2023-01-19T04:26:25;99850.03;;;-4.61;88.11
49835;BME280;35729;52.090;13.162;2023-01-19T04:28:54;99860.25;;;-4.61;88.24
49835;BME280;35729;52.090;13.162;2023-01-19T04:31:25;99853.47;;;-4.59;88.22
49835;BME280;35729;52.090;13.162;2023-01-19T04:33:54;99851.78;;;-4.59;88.45
49835;BME280;35729;52.090;13.162;2023-01-19T04:36:23;99844.97;;;-4.58;88.38
49835;BME280;35729;52.090;13.162;2023-01-19T04:38:52;99839.84;;;-4.58;88.27
49835;BME280;35729;52.090;13.162;2023-01-19T04:41:20;99840.69;;;-4.58;88.27
49835;BME280;35729;52.090;13.162;2023-01-19T04:43:49;99843.31;;;-4.56;88.20
49835;BME280;35729;52.090;13.162;2023-01-19T04:46:17;99845.03;;;-4.55;88.43
49835;BME280;35729;52.090;13.162;2023-01-19T04:48:48;99839.91;;;-4.55;88.16
49835;BME280;35729;52.090;13.162;2023-01-19T04:51:17;99847.59;;;-4.55;88.21
49835;BME280;35729;52.090;13.162;2023-01-19T04:53:45;99851.03;;;-4.54;88.24
49835;BME280;35729;52.090;13.162;2023-01-19T04:56:14;99845.03;;;-4.55;88.22
49835;BME280;35729;52.090;13.162;2023-01-19T04:58:42;99845.03;;;-4.55;88.26
49835;BME280;35729;52.090;13.162;2023-01-19T05:01:11;99839.06;;;-4.55;88.04
49835;BME280;35729;52.090;13.162;2023-01-19T05:03:39;99844.16;;;-4.57;87.95
49835;BME280;35729;52.090;13.162;2023-01-19T05:06:10;99834.75;;;-4.56;88.05
49835;BME280;35729;52.090;13.162;2023-01-19T05:08:39;99845.00;;;-4.56;87.94
49835;BME280;35729;52.090;13.162;2023-01-19T05:11:07;99844.16;;;-4.57;87.77
49835;BME280;35729;52.090;13.162;2023-01-19T05:13:36;99840.69;;;-4.58;87.97
49835;BME280;35729;52.090;13.162;2023-01-19T05:16:05;99839.81;;;-4.60;87.94
49835;BME280;35729;52.090;13.162;2023-01-19T05:18:34;99850.09;;;-4.58;87.65
49835;BME280;35729;52.090;13.162;2023-01-19T05:21:02;99848.44;;;-4.56;88.08
49835;BME280;35729;52.090;13.162;2023-01-19T05:23:34;99846.72;;;-4.55;87.62
49835;BME280;35729;52.090;13.162;2023-01-19T05:26:02;99861.31;;;-4.53;87.80
49835;BME280;35729;52.090;13.162;2023-01-19T05:28:32;99871.53;;;-4.53;87.72
49835;BME280;35729;52.090;13.162;2023-01-19T05:31:00;99869.88;;;-4.52;87.46
49835;BME280;35729;52.090;13.162;2023-01-19T05:33:29;99870.72;;;-4.52;87.61
49835;BME280;35729;52.090;13.162;2023-01-19T05:35:57;99875.00;;;-4.52;87.27
49835;BME280;35729;52.090;13.162;2023-01-19T05:38:26;99876.69;;;-4.51;87.35
49835;BME280;35729;52.090;13.162;2023-01-19T05:40:58;99875.88;;;-4.50;87.38
49835;BME280;35729;52.090;13.162;2023-01-19T05:43:27;99876.75;;;-4.50;87.24
49835;BME280;35729;52.090;13.162;2023-01-19T05:45:55;99869.06;;;-4.50;87.21
49835;BME280;35729;52.090;13.162;2023-01-19T05:48:24;99867.41;;;-4.48;86.94
49835;BME280;35729;52.090;13.162;2023-01-19T05:50:56;99864.88;;;-4.46;86.76
49835;BME280;35729;52.090;13.162;2023-01-19T05:53:26;99870.06;;;-4.45;86.45
49835;BME280;35729;52.090;13.162;2023-01-19T05:56:01;99866.72;;;-4.42;86.24
49835;BME280;35729;52.090;13.162;2023-01-19T05:58:30;99867.56;;;-4.42;86.28
49835;BME280;35729;52.090;13.162;2023-01-19T06:01:01;99869.28;;;-4.40;86.03
49835;BME280;35729;52.090;13.162;2023-01-19T06:03:30;99868.47;;;-4.39;86.08
49835;BME280;35729;52.090;13.162;2023-01-19T06:05:59;99865.09;;;-4.38;85.39
49835;BME280;35729;52.090;13.162;2023-01-19T06:08:28;99878.75;;;-4.38;85.30
49835;BME280;35729;52.090;13.162;2023-01-19T06:11:07;99877.00;;;-4.39;85.29
49835;BME280;35729;52.090;13.162;2023-01-19T06:13:35;99886.44;;;-4.38;85.88
49835;BME280;35729;52.090;13.162;2023-01-19T06:16:05;99879.59;;;-4.37;85.28
49835;BME280;35729;52.090;13.162;2023-01-19T06:18:34;99880.47;;;-4.38;85.56
49835;BME280;35729;52.090;13.162;2023-01-19T06:21:03;99875.28;;;-4.40;85.40
49835;BME280;35729;52.090;13.162;2023-01-19T06:23:33;99884.66;;;-4.40;85.06
49835;BME280;35729;52.090;13.162;2023-01-19T06:26:02;99883.72;;;-4.44;85.22
49835;BME280;35729;52.090;13.162;2023-01-19T06:28:33;99892.22;;;-4.45;85.03
49835;BME280;35729;52.090;13.162;2023-01-19T06:31:09;99892.16;;;-4.48;85.17
49835;BME280;35729;52.090;13.162;2023-01-19T06:33:37;99896.38;;;-4.49;85.15
49835;BME280;35729;52.090;13.162;2023-01-19T06:36:06;99898.88;;;-4.52;85.26
49835;BME280;35729;52.090;13.162;2023-01-19T06:38:35;99894.53;;;-4.56;84.79
49835;BME280;35729;52.090;13.162;2023-01-19T06:41:04;99899.53;;;-4.59;84.85
49835;BME280;35729;52.090;13.162;2023-01-19T06:43:35;99885.69;;;-4.67;84.89
49835;BME280;35729;52.090;13.162;2023-01-19T06:46:04;99888.16;;;-4.70;84.56
49835;BME280;35729;52.090;13.162;2023-01-19T06:48:33;99895.78;;;-4.73;84.54
49835;BME280;35729;52.090;13.162;2023-01-19T06:51:01;99893.88;;;-4.81;84.57
49835;BME280;35729;52.090;13.162;2023-01-19T06:53:30;99892.94;;;-4.83;85.13
49835;BME280;35729;52.090;13.162;2023-01-19T06:55:59;99903.13;;;-4.86;84.99
49835;BME280;35729;52.090;13.162;2023-01-19T06:58:29;99902.16;;;-4.89;85.14
49835;BME280;35729;52.090;13.162;2023-01-19T07:01:03;99899.53;;;-4.93;85.29
49835;BME280;35729;52.090;13.162;2023-01-19T07:03:33;99896.75;;;-5.00;84.61
49835;BME280;35729;52.090;13.162;2023-01-19T07:06:03;99898.41;;;-5.02;84.49
49835;BME280;35729;52.090;13.162;2023-01-19T07:08:34;99900.03;;;-5.04;85.16
49835;BME280;35729;52.090;13.162;2023-01-19T07:11:04;99904.25;;;-5.07;85.29
49835;BME280;35729;52.090;13.162;2023-01-19T07:13:34;99905.91;;;-5.09;85.23
49835;BME280;35729;52.090;13.162;2023-01-19T07:16:08;99910.09;;;-5.11;85.27
49835;BME280;35729;52.090;13.162;2023-01-19T07:18:38;99924.56;;;-5.13;85.43
49835;BME280;35729;52.090;13.162;2023-01-19T07:21:07;99931.31;;;-5.15;85.55
49835;BME280;35729;52.090;13.162;2023-01-19T07:23:36;99933.00;;;-5.15;85.67
49835;BME280;35729;52.090;13.162;2023-01-19T07:26:05;99932.13;;;-5.16;85.59
49835;BME280;35729;52.090;13.162;2023-01-19T07:28:33;99930.38;;;-5.17;85.38
49835;BME280;35729;52.090;13.162;2023-01-19T07:31:02;99932.94;;;-5.17;85.45
49835;BME280;35729;52.090;13.162;2023-01-19T07:33:33;99936.38;;;-5.16;85.69
49835;BME280;35729;52.090;13.162;2023-01-19T07:36:01;99936.38;;;-5.16;85.70
49835;BME280;35729;52.090;13.162;2023-01-19T07:38:30;99939.78;;;-5.16;85.60
49835;BME280;35729;52.090;13.162;2023-01-19T07:40:59;99945.78;;;-5.15;85.59
49835;BME280;35729;52.090;13.162;2023-01-19T07:43:28;99935.41;;;-5.20;85.63
49835;BME280;35729;52.090;13.162;2023-01-19T07:45:57;99943.25;;;-5.15;85.82
49835;BME280;35729;52.090;13.162;2023-01-19T07:48:27;99942.34;;;-5.16;85.44
49835;BME280;35729;52.090;13.162;2023-01-19T07:51:02;99945.72;;;-5.17;85.71
49835;BME280;35729;52.090;13.162;2023-01-19T07:53:33;99953.50;;;-5.14;85.55
49835;BME280;35729;52.090;13.162;2023-01-19T07:56:01;99950.03;;;-5.16;85.78
49835;BME280;35729;52.090;13.162;2023-01-19T07:58:32;99956.91;;;-5.13;85.59
49835;BME280;35729;52.090;13.162;2023-01-19T08:01:05;99956.06;;;-5.14;85.73
49835;BME280;35729;52.090;13.162;2023-01-19T08:03:33;99956.09;;;-5.12;85.83
49835;BME280;35729;52.090;13.162;2023-01-19T08:06:05;99960.44;;;-5.10;86.14
49835;BME280;35729;52.090;13.162;2023-01-19T08:08:34;99958.75;;;-5.09;86.25
49835;BME280;35729;52.090;13.162;2023-01-19T08:11:02;99959.59;;;-5.10;86.04
49835;BME280;35729;52.090;13.162;2023-01-19T08:13:31;99971.66;;;-5.04;86.34
49835;BME280;35729;52.090;13.162;2023-01-19T08:15:59;99953.72;;;-5.06;86.21
49835;BME280;35729;52.090;13.162;2023-01-19T08:18:28;99965.88;;;-4.99;86.29
49835;BME280;35729;52.090;13.162;2023-01-19T08:20:57;99971.06;;;-4.96;86.22
49835;BME280;35729;52.090;13.162;2023-01-19T08:23:28;99970.28;;;-4.93;86.48
49835;BME280;35729;52.090;13.162;2023-01-19T08:25:57;99978.06;;;-4.90;86.33
49835;BME280;35729;52.090;13.162;2023-01-19T08:28:25;99973.84;;;-4.88;86.25
49835;BME280;35729;52.090;13.162;2023-01-19T08:30:54;99979.91;;;-4.84;86.19
49835;BME280;35729;52.090;13.162;2023-01-19T08:33:23;99974.84;;;-4.83;86.34
49835;BME280;35729;52.090;13.162;2023-01-19T08:35:52;99980.97;;;-4.78;86.16
49835;BME280;35729;52.090;13.162;2023-01-19T08:38:21;99976.78;;;-4.74;86.50
49835;BME280;35729;52.090;13.162;2023-01-19T08:40:52;99982.03;;;-4.69;86.48
49835;BME280;35729;52.090;13.162;2023-01-19T08:43:20;99976.19;;;-4.65;86.41
49835;BME280;35729;52.090;13.162;2023-01-19T08:45:50;99983.13;;;-4.61;86.47
49835;BME280;35729;52.090;13.162;2023-01-19T08:48:21;99976.44;;;-4.56;86.55
49835;BME280;35729;52.090;13.162;2023-01-19T08:50:51;99974.84;;;-4.52;86.44
49835;BME280;35729;52.090;13.162;2023-01-19T08:53:20;99980.06;;;-4.48;86.61
49835;BME280;35729;52.090;13.162;2023-01-19T08:55:53;99975.06;;;-4.43;86.46
49835;BME280;35729;52.090;13.162;2023-01-19T08:58:24;99977.78;;;-4.38;86.65
49835;BME280;35729;52.090;13.162;2023-01-19T09:00:53;99987.25;;;-4.34;86.31
49835;BME280;35729;52.090;13.162;2023-01-19T09:03:21;99986.47;;;-4.32;86.45
49835;BME280;35729;52.090;13.162;2023-01-19T09:05:50;99986.66;;;-4.24;86.55
49835;BME280;35729;52.090;13.162;2023-01-19T09:08:18;99993.59;;;-4.20;86.61
49835;BME280;35729;52.090;13.162;2023-01-19T09:10:48;99993.72;;;-4.15;86.60
49835;BME280;35729;52.090;13.162;2023-01-19T09:13:20;99989.59;;;-4.10;86.56
49835;BME280;35729;52.090;13.162;2023-01-19T09:15:48;99991.44;;;-4.04;86.44
49835;BME280;35729;52.090;13.162;2023-01-19T09:18:18;100001.78;;;-4.01;86.73
49835;BME280;35729;52.090;13.162;2023-01-19T09:20:49;100002.75;;;-3.96;86.50
49835;BME280;35729;52.090;13.162;2023-01-19T09:23:20;99997.78;;;-3.90;87.97
49835;BME280;35729;52.090;13.162;2023-01-19T09:25:55;100003.94;;;-3.82;88.00
49835;BME280;35729;52.090;13.162;2023-01-19T09:28:27;99997.38;;;-3.70;89.25
49835;BME280;35729;52.090;13.162;2023-01-19T09:30:56;99996.84;;;-3.58;89.48
49835;BME280;35729;52.090;13.162;2023-01-19T09:33:24;99999.63;;;-3.48;89.15
49835;BME280;35729;52.090;13.162;2023-01-19T09:35:54;99993.94;;;-3.36;88.35
49835;BME280;35729;52.090;13.162;2023-01-19T09:38:22;100000.06;;;-3.29;88.28
49835;BME280;35729;52.090;13.162;2023-01-19T09:40:52;100008.88;;;-3.18;88.19
49835;BME280;35729;52.090;13.162;2023-01-19T09:43:34;99999.56;;;-3.13;87.58
49835;BME280;35729;52.090;13.162;2023-01-19T09:46:08;100001.44;;;-3.05;87.21
49835;BME280;35729;52.090;13.162;2023-01-19T09:48:50;100002.44;;;-2.97;86.85
49835;BME280;35729;52.090;13.162;2023-01-19T09:51:22;100000.84;;;-2.92;86.96
49835;BME280;35729;52.090;13.162;2023-01-19T09:53:55;99998.41;;;-2.86;87.03
49835;BME280;35729;52.090;13.162;2023-01-19T09:56:24;100007.13;;;-2.79;86.83
49835;BME280;35729;52.090;13.162;2023-01-19T09:58:57;99992.72;;;-2.72;86.73
49835;BME280;35729;52.090;13.162;2023-01-19T10:01:36;99990.25;;;-2.66;86.66
49835;BME280;35729;52.090;13.162;2023-01-19T10:04:26;99987.78;;;-2.62;86.52
49835;BME280;35729;52.090;13.162;2023-01-19T10:07:02;99976.75;;;-2.56;86.83
49835;BME280;35729;52.090;13.162;2023-01-19T10:09:39;99981.19;;;-2.49;86.83
49835;BME280;35729;52.090;13.162;2023-01-19T10:12:16;99990.69;;;-2.43;86.73
49835;BME280;35729;52.090;13.162;2023-01-19T10:14:55;99979.69;;;-2.37;87.04
49835;BME280;35729;52.090;13.162;2023-01-19T10:17:37;99984.16;;;-2.25;86.81
49835;BME280;35729;52.090;13.162;2023-01-19T10:20:15;99979.16;;;-2.18;86.62
49835;BME280;35729;52.090;13.162;2023-01-19T10:22:47;99977.59;;;-2.11;86.79
49835;BME280;35729;52.090;13.162;2023-01-19T10:25:19;99973.41;;;-2.04;86.24
49835;BME280;35729;52.090;13.162;2023-01-19T10:27:50;99974.34;;;-1.99;86.24
49835;BME280;35729;52.090;13.162;2023-01-19T10:30:23;99967.59;;;-1.94;86.31
49835;BME280;35729;52.090;13.162;2023-01-19T10:32:53;99971.09;;;-1.89;86.30
49835;BME280;35729;52.090;13.162;2023-01-19T10:35:23;99980.63;;;-1.83;86.10
49835;BME280;35729;52.090;13.162;2023-01-19T10:37:53;99978.94;;;-1.80;85.46
49835;BME280;35729;52.090;13.162;2023-01-19T10:40:27;99977.28;;;-1.76;85.28
49835;BME280;35729;52.090;13.162;2023-01-19T10:42:58;99982.50;;;-1.74;85.55
49835;BME280;35729;52.090;13.162;2023-01-19T10:45:30;99983.38;;;-1.71;85.47
49835;BME280;35729;52.090;13.162;2023-01-19T10:48:05;99967.94;;;-1.72;85.24
49835;BME280;35729;52.090;13.162;2023-01-19T10:50:36;99980.94;;;-1.63;85.63
49835;BME280;35729;52.090;13.162;2023-01-19T10:53:18;99981.84;;;-1.59;85.04
49835;BME280;35729;52.090;13.162;2023-01-19T10:56:09;99975.88;;;-1.57;85.02
49835;BME280;35729;52.090;13.162;2023-01-19T10:58:38;99969.94;;;-1.53;85.17
49835;BME280;35729;52.090;13.162;2023-01-19T11:01:18;99970.88;;;-1.48;85.06
49835;BME280;35729;52.090;13.162;2023-01-19T11:03:47;99958.03;;;-1.46;84.81
49835;BME280;35729;52.090;13.162;2023-01-19T11:06:21;99958.06;;;-1.44;84.74
49835;BME280;35729;52.090;13.162;2023-01-19T11:08:51;99965.84;;;-1.38;84.60
49835;BME280;35729;52.090;13.162;2023-01-19T11:11:20;99953.88;;;-1.38;84.08
49835;BME280;35729;52.090;13.162;2023-01-19T11:14:08;99946.19;;;-1.33;84.01
49835;BME280;35729;52.090;13.162;2023-01-19T11:16:45;99952.28;;;-1.28;84.48
49835;BME280;35729;52.090;13.162;2023-01-19T11:19:18;99953.19;;;-1.24;84.37
49835;BME280;35729;52.090;13.162;2023-01-19T11:21:51;99960.97;;;-1.20;84.61
49835;BME280;35729;52.090;13.162;2023-01-19T11:24:22;99957.59;;;-1.16;84.40
49835;BME280;35729;52.090;13.162;2023-01-19T11:26:54;99958.50;;;-1.13;83.97
49835;BME280;35729;52.090;13.162;2023-01-19T11:29:27;99961.97;;;-1.10;83.85
49835;BME280;35729;52.090;13.162;2023-01-19T11:32:09;99954.25;;;-1.08;83.90
49835;BME280;35729;52.090;13.162;2023-01-19T11:34:41;99954.28;;;-1.05;83.77
49835;BME280;35729;52.090;13.162;2023-01-19T11:37:26;99944.06;;;-1.02;83.69
49835;BME280;35729;52.090;13.162;2023-01-19T11:39:57;99945.81;;;-0.98;83.29
49835;BME280;35729;52.090;13.162;2023-01-19T11:42:31;99950.13;;;-0.97;83.25
49835;BME280;35729;52.090;13.162;2023-01-19T11:45:02;99943.25;;;-0.95;82.94
49835;BME280;35729;52.090;13.162;2023-01-19T11:47:38;99939.84;;;-0.92;83.41
49835;BME280;35729;52.090;13.162;2023-01-19T11:50:14;99944.19;;;-0.90;83.35
49835;BME280;35729;52.090;13.162;2023-01-19T11:52:51;99937.31;;;-0.91;83.71
49835;BME280;35729;52.090;13.162;2023-01-19T11:55:24;99941.66;;;-0.87;82.85
49835;BME280;35729;52.090;13.162;2023-01-19T11:57:56;99939.09;;;-0.85;82.99
49835;BME280;35729;52.090;13.162;2023-01-19T12:00:32;99947.69;;;-0.85;82.99
49835;BME280;35729;52.090;13.162;2023-01-19T12:03:11;99940.84;;;-0.83;83.12
49835;BME280;35729;52.090;13.162;2023-01-19T12:05:49;99942.56;;;-0.82;82.96
49835;BME280;35729;52.090;13.162;2023-01-19T12:08:28;99944.31;;;-0.79;83.00
49835;BME280;35729;52.090;13.162;2023-01-19T12:10:59;99940.91;;;-0.76;82.89
49835;BME280;35729;52.090;13.162;2023-01-19T12:13:30;99935.75;;;-0.76;82.67
49835;BME280;35729;52.090;13.162;2023-01-19T12:16:03;99929.78;;;-0.74;82.62
49835;BME280;35729;52.090;13.162;2023-01-19T12:18:38;99933.25;;;-0.72;82.93
49835;BME280;35729;52.090;13.162;2023-01-19T12:21:15;99921.22;;;-0.70;82.34
49835;BME280;35729;52.090;13.162;2023-01-19T12:23:52;99929.00;;;-0.68;82.44
49835;BME280;35729;52.090;13.162;2023-01-19T12:26:29;99930.69;;;-0.67;82.19
49835;BME280;35729;52.090;13.162;2023-01-19T12:29:01;99935.00;;;-0.66;81.55
49835;BME280;35729;52.090;13.162;2023-01-19T12:31:31;99929.88;;;-0.64;82.74
49835;BME280;35729;52.090;13.162;2023-01-19T12:34:38;99931.59;;;-0.63;81.74
49835;BME280;35729;52.090;13.162;2023-01-19T12:37:38;99945.38;;;-0.61;82.22
49835;BME280;35729;52.090;13.162;2023-01-19T12:40:22;99947.09;;;-0.60;82.11
49835;BME280;35729;52.090;13.162;2023-01-19T12:42:58;99953.13;;;-0.58;82.30
49835;BME280;35729;52.090;13.162;2023-01-19T12:45:31;99948.00;;;-0.57;82.53
49835;BME280;35729;52.090;13.162;2023-01-19T12:48:02;99948.88;;;-0.55;82.39
49835;BME280;35729;52.090;13.162;2023-01-19T12:50:38;99949.75;;;-0.53;82.32
49835;BME280;35729;52.090;13.162;2023-01-19T12:53:17;99950.66;;;-0.49;81.93
49835;BME280;35729;52.090;13.162;2023-01-19T12:55:57;99948.09;;;-0.47;81.88
49835;BME280;35729;52.090;13.162;2023-01-19T12:58:27;99944.69;;;-0.46;82.25
49835;BME280;35729;52.090;13.162;2023-01-19T13:01:21;99954.16;;;-0.41;82.08
49835;BME280;35729;52.090;13.162;2023-01-19T13:03:59;99957.66;;;-0.37;81.88
49835;BME280;35729;52.090;13.162;2023-01-19T13:09:33;99962.03;;;-0.27;81.88
49835;BME280;35729;52.090;13.162;2023-01-19T13:12:20;99956.94;;;-0.22;82.03
49835;BME280;35729;52.090;13.162;2023-01-19T13:14:49;99957.84;;;-0.17;81.82
49835;BME280;35729;52.090;13.162;2023-01-19T13:17:45;99959.63;;;-0.10;82.09